Time;durP1;ratioP1;P1;durP2;ratioP2;P2;SDS_P1;SDS_P2;PMS_P1;PMS_P2;Temp;Humidity;BMP_temperature;BMP_pressure;BME280_temperature;BME280_humidity;BME280_pressure;Samples;Min_cycle;Max_cycle;Signal;HPM_P1;HPM_P2
2022/06/06 00:00:07;;;;;;;11.50;6.22;;;;;;;;;;4816350;29;20060;-74
2022/06/06 00:02:41;;;;;;;9.98;6.15;;;;;;;;;;4817259;29;20054;-73
2022/06/06 00:05:19;;;;;;;9.98;5.45;;;;;;;;;;4816246;29;20528;-73
2022/06/06 00:07:49;;;;;;;7.72;4.55;;;;;;;;;;4798908;29;20420;-74
2022/06/06 00:10:18;;;;;;;8.00;4.97;;;;;;;;;;4798535;29;20062;-72
2022/06/06 00:12:48;;;;;;;9.02;5.25;;;;;;;;;;4798760;29;20058;-74
2022/06/06 00:15:18;;;;;;;13.32;5.75;;;;;;;;;;4801418;29;20050;-74
2022/06/06 00:17:48;;;;;;;11.13;5.75;;;;;;;;;;4805087;29;20043;-74
2022/06/06 00:20:18;;;;;;;13.27;5.95;;;;;;;;;;4804614;29;21196;-73
2022/06/06 00:22:49;;;;;;;9.07;5.00;;;;;;;;;;4804357;29;20077;-73
2022/06/06 00:25:20;;;;;;;10.75;5.95;;;;;;;;;;4801185;29;20083;-74
2022/06/06 00:27:50;;;;;;;21.75;5.72;;;;;;;;;;4801839;29;20046;-75
2022/06/06 00:30:19;;;;;;;10.15;4.82;;;;;;;;;;4800951;29;20066;-76
2022/06/06 00:35:38;;;;;;;5.18;3.15;;;;;;;;;;4801513;29;20097;-74
2022/06/06 00:38:09;;;;;;;7.85;3.38;;;;;;;;;;4801909;29;20514;-76
2022/06/06 00:40:39;;;;;;;8.25;3.20;;;;;;;;;;4808732;29;20046;-74
2022/06/06 00:43:09;;;;;;;2.70;2.50;;;;;;;;;;4810828;29;20053;-73
2022/06/06 00:45:40;;;;;;;5.53;3.72;;;;;;;;;;4814786;29;20046;-74
2022/06/06 00:48:15;;;;;;;5.80;3.22;;;;;;;;;;4819832;29;20061;-74
2022/06/06 00:51:03;;;;;;;15.75;3.20;;;;;;;;;;4819337;29;20054;-75
2022/06/06 00:53:51;;;;;;;10.02;3.20;;;;;;;;;;4815565;29;20073;-74
2022/06/06 00:56:36;;;;;;;10.60;3.53;;;;;;;;;;4802686;29;20067;-74
2022/06/06 00:59:13;;;;;;;7.68;2.40;;;;;;;;;;4800801;29;20050;-76
2022/06/06 01:01:44;;;;;;;8.77;2.30;;;;;;;;;;4801052;29;20058;-74
2022/06/06 01:04:16;;;;;;;6.65;3.60;;;;;;;;;;4801336;29;20512;-74
2022/06/06 01:06:47;;;;;;;9.82;4.20;;;;;;;;;;4811459;29;20533;-71
2022/06/06 01:09:19;;;;;;;18.85;5.18;;;;;;;;;;4818204;29;20534;-73
2022/06/06 01:11:55;;;;;;;23.27;4.65;;;;;;;;;;4819315;29;20050;-73
2022/06/06 01:14:32;;;;;;;10.55;4.00;;;;;;;;;;4818512;29;20547;-74
2022/06/06 01:17:10;;;;;;;8.18;4.07;;;;;;;;;;4820603;29;20055;-73
2022/06/06 01:20:04;;;;;;;5.75;5.10;;;;;;;;;;4824701;29;20676;-75
2022/06/06 01:22:53;;;;;;;5.43;4.07;;;;;;;;;;4823136;29;20511;-74
2022/06/06 01:25:25;;;;;;;9.95;5.00;;;;;;;;;;4817312;29;20054;-73
2022/06/06 01:28:17;;;;;;;11.43;5.22;;;;;;;;;;4817617;29;20050;-74
2022/06/06 01:30:54;;;;;;;12.55;5.38;;;;;;;;;;4818750;29;20605;-74
2022/06/06 01:33:25;;;;;;;14.70;5.25;;;;;;;;;;4818738;29;20054;-73
2022/06/06 01:36:01;;;;;;;10.77;4.53;;;;;;;;;;4818445;29;20050;-73
2022/06/06 01:38:31;;;;;;;7.72;4.25;;;;;;;;;;4817766;29;20054;-73
2022/06/06 01:41:09;;;;;;;6.07;4.25;;;;;;;;;;4818810;29;20435;-75
2022/06/06 01:43:44;;;;;;;6.03;4.15;;;;;;;;;;4819098;29;20050;-74
2022/06/06 01:46:26;;;;;;;8.32;3.95;;;;;;;;;;4819036;29;20328;-74
2022/06/06 01:48:58;;;;;;;10.35;4.03;;;;;;;;;;4818039;29;20847;-73
2022/06/06 01:51:31;;;;;;;14.23;5.57;;;;;;;;;;4819085;29;20054;-73
2022/06/06 01:54:01;;;;;;;13.63;4.75;;;;;;;;;;4818881;29;20058;-74
2022/06/06 01:56:34;;;;;;;17.38;4.93;;;;;;;;;;4803010;29;20050;-74
2022/06/06 01:59:05;;;;;;;10.45;4.60;;;;;;;;;;4818375;29;20082;-74
2022/06/06 02:01:35;;;;;;;8.30;3.40;;;;;;;;;;4802451;29;20054;-74
2022/06/06 02:04:05;;;;;;;5.78;3.22;;;;;;;;;;4819406;29;20563;-73
2022/06/06 02:06:38;;;;;;;6.72;3.72;;;;;;;;;;4818403;29;20073;-74
2022/06/06 02:09:09;;;;;;;7.60;3.75;;;;;;;;;;4818427;29;20914;-73
2022/06/06 02:11:40;;;;;;;11.35;4.00;;;;;;;;;;4818570;29;20077;-73
2022/06/06 02:14:11;;;;;;;13.00;3.83;;;;;;;;;;4818925;29;20070;-73
2022/06/06 02:16:44;;;;;;;9.32;4.05;;;;;;;;;;4818587;29;20053;-74
2022/06/06 02:19:15;;;;;;;7.95;5.05;;;;;;;;;;4818365;29;20050;-74
2022/06/06 02:21:46;;;;;;;19.13;7.28;;;;;;;;;;4818135;29;20046;-74
2022/06/06 02:24:16;;;;;;;38.85;5.65;;;;;;;;;;4817651;29;20055;-73
2022/06/06 02:26:46;;;;;;;19.33;4.95;;;;;;;;;;4802357;29;20049;-73
2022/06/06 02:29:16;;;;;;;8.77;5.07;;;;;;;;;;4802243;29;20057;-74
2022/06/06 02:31:46;;;;;;;12.48;4.38;;;;;;;;;;4818820;29;20399;-73
2022/06/06 02:34:16;;;;;;;6.78;4.32;;;;;;;;;;4818340;29;20058;-73
2022/06/06 02:36:45;;;;;;;16.50;4.13;;;;;;;;;;4817705;29;20065;-73
2022/06/06 02:39:15;;;;;;;10.43;4.00;;;;;;;;;;4818275;29;20077;-74
2022/06/06 02:41:45;;;;;;;12.98;4.40;;;;;;;;;;4814665;29;20061;-73
2022/06/06 02:44:15;;;;;;;15.50;5.03;;;;;;;;;;4814319;29;20065;-74
2022/06/06 02:46:45;;;;;;;14.40;4.63;;;;;;;;;;4814859;29;20534;-73
2022/06/06 02:49:14;;;;;;;11.85;4.57;;;;;;;;;;4817881;29;20054;-73
2022/06/06 02:51:44;;;;;;;6.75;3.63;;;;;;;;;;4818326;29;20054;-73
2022/06/06 02:54:15;;;;;;;6.85;4.00;;;;;;;;;;4818248;29;20058;-73
2022/06/06 02:56:45;;;;;;;6.45;3.80;;;;;;;;;;4802629;29;20073;-73
2022/06/06 02:59:19;;;;;;;13.43;4.53;;;;;;;;;;4818080;29;20533;-74
2022/06/06 03:01:51;;;;;;;10.70;4.28;;;;;;;;;;4799903;29;20062;-74
2022/06/06 03:04:21;;;;;;;9.27;4.90;;;;;;;;;;4818292;29;20050;-74
2022/06/06 03:07:17;;;;;;;10.10;5.40;;;;;;;;;;4817784;29;20054;-73
2022/06/06 03:10:24;;;;;;;13.20;5.72;;;;;;;;;;4801208;29;20617;-75
2022/06/06 03:13:08;;;;;;;13.70;4.82;;;;;;;;;;4818108;29;20054;-76
2022/06/06 03:22:12;;;;;;;9.80;5.38;;;;;;;;;;4818352;29;20498;-76
2022/06/06 03:24:57;;;;;;;;;;;;;;;;;;4818565;29;20057;-75
2022/06/06 03:27:44;;;;;;;21.17;12.70;;;;;;;;;;4817706;29;19934;-75
2022/06/06 03:30:32;;;;;;;54.25;17.05;;;;;;;;;;4817139;29;20059;-76
2022/06/06 03:33:39;;;;;;;19.95;7.78;;;;;;;;;;4816978;29;20081;-75
2022/06/06 03:36:24;;;;;;;7.38;4.95;;;;;;;;;;4817789;29;20050;-75
2022/06/06 03:39:07;;;;;;;7.47;4.93;;;;;;;;;;4817426;29;20109;-75
2022/06/06 03:41:53;;;;;;;8.20;4.57;;;;;;;;;;4817194;29;20058;-75
2022/06/06 03:44:38;;;;;;;8.65;5.50;;;;;;;;;;4817644;29;20046;-75
2022/06/06 03:47:42;;;;;;;10.50;5.93;;;;;;;;;;4817294;29;20047;-75
2022/06/06 03:50:30;;;;;;;5.20;4.07;;;;;;;;;;4816797;29;20050;-74
2022/06/06 03:53:29;;;;;;;7.07;4.18;;;;;;;;;;4817407;29;20415;-74
2022/06/06 03:56:13;;;;;;;5.22;4.15;;;;;;;;;;4795546;29;20067;-74
2022/06/06 03:58:44;;;;;;;10.77;4.50;;;;;;;;;;4820663;29;20073;-74
2022/06/06 04:01:15;;;;;;;8.15;3.75;;;;;;;;;;4820995;29;20085;-74
2022/06/06 04:03:45;;;;;;;4.40;3.77;;;;;;;;;;4820132;29;20065;-74
2022/06/06 04:06:18;;;;;;;4.35;3.38;;;;;;;;;;4820429;29;20179;-74
2022/06/06 04:08:48;;;;;;;7.32;3.35;;;;;;;;;;4820849;29;20053;-74
2022/06/06 04:11:24;;;;;;;2.83;2.40;;;;;;;;;;4821002;29;20404;-74
2022/06/06 04:14:37;;;;;;;4.03;2.70;;;;;;;;;;4821094;29;20077;-73
2022/06/06 04:17:19;;;;;;;4.00;3.00;;;;;;;;;;4809432;29;20059;-74
2022/06/06 04:20:10;;;;;;;2.90;2.20;;;;;;;;;;4820426;29;20051;-74
2022/06/06 04:22:58;;;;;;;4.70;2.60;;;;;;;;;;4820124;29;20053;-74
2022/06/06 04:25:50;;;;;;;4.40;2.75;;;;;;;;;;4819945;29;20054;-74
2022/06/06 04:28:32;;;;;;;6.30;4.17;;;;;;;;;;4820378;29;20057;-74
2022/06/06 04:31:24;;;;;;;8.52;4.78;;;;;;;;;;4819219;29;20322;-74
2022/06/06 04:33:55;;;;;;;8.50;2.80;;;;;;;;;;4803257;29;20066;-74
2022/06/06 04:37:07;;;;;;;5.10;2.65;;;;;;;;;;4820544;29;20411;-74
2022/06/06 04:39:58;;;;;;;4.28;2.90;;;;;;;;;;4818080;29;20062;-74
2022/06/06 04:42:57;;;;;;;5.78;3.40;;;;;;;;;;4819472;29;20545;-74
2022/06/06 04:46:01;;;;;;;6.55;3.03;;;;;;;;;;4741397;29;20082;-75
2022/06/06 04:48:34;;;;;;;5.13;3.00;;;;;;;;;;4819876;29;20507;-75
2022/06/06 04:51:05;;;;;;;5.60;3.28;;;;;;;;;;4820312;29;20081;-74
2022/06/06 04:53:41;;;;;;;10.95;3.42;;;;;;;;;;4819557;29;20058;-75
2022/06/06 05:09:15;;;;;;;7.13;3.55;;;;;;;;;;5125672;27;20220;-75
2022/06/06 05:11:58;;;;;;;5.00;3.22;;;;;;;;;;5104072;28;20036;-75
2022/06/06 05:14:56;;;;;;;4.03;3.47;;;;;;;;;;5103697;28;20043;-73
2022/06/06 05:18:07;;;;;;;8.52;3.30;;;;;;;;;;5104059;28;20051;-75
2022/06/06 05:21:00;;;;;;;3.35;2.97;;;;;;;;;;5103058;28;20052;-74
2022/06/06 05:23:46;;;;;;;4.88;3.10;;;;;;;;;;5103854;28;20051;-74
2022/06/06 05:26:45;;;;;;;4.72;3.30;;;;;;;;;;5104050;28;20502;-74
2022/06/06 05:29:24;;;;;;;3.80;3.20;;;;;;;;;;5075584;28;20052;-74
2022/06/06 05:32:31;;;;;;;3.83;3.28;;;;;;;;;;5103540;28;20051;-74
2022/06/06 05:35:26;;;;;;;3.90;3.50;;;;;;;;;;5103405;28;20517;-75
2022/06/06 05:38:26;;;;;;;6.68;3.15;;;;;;;;;;5103815;28;20044;-73
2022/06/06 05:41:18;;;;;;;3.72;3.05;;;;;;;;;;5103868;28;20405;-73
2022/06/06 05:43:53;;;;;;;11.18;3.42;;;;;;;;;;5103339;28;20040;-75
2022/06/06 05:46:37;;;;;;;6.63;3.65;;;;;;;;;;5102604;28;20398;-75
2022/06/06 05:49:39;;;;;;;5.25;3.38;;;;;;;;;;5103569;28;20051;-74
2022/06/06 05:52:24;;;;;;;7.32;3.17;;;;;;;;;;5103414;28;20121;-75
2022/06/06 05:55:00;;;;;;;8.85;3.03;;;;;;;;;;5103322;28;20051;-75
2022/06/06 05:57:54;;;;;;;6.22;2.97;;;;;;;;;;5094756;28;20044;-75
2022/06/06 06:00:55;;;;;;;6.63;2.90;;;;;;;;;;5082760;28;20053;-75
2022/06/06 06:03:58;;;;;;;4.73;3.07;;;;;;;;;;5082381;28;20052;-75
2022/06/06 06:07:03;;;;;;;6.20;2.90;;;;;;;;;;5082956;28;20290;-74
2022/06/06 06:09:41;;;;;;;5.05;2.80;;;;;;;;;;5027910;28;20067;-75
2022/06/06 06:12:33;;;;;;;4.53;2.75;;;;;;;;;;5069410;28;20047;-75
2022/06/06 06:15:29;;;;;;;6.05;3.05;;;;;;;;;;5069969;28;20048;-75
2022/06/06 06:18:02;;;;;;;5.40;2.97;;;;;;;;;;5068932;28;20511;-75
2022/06/06 06:20:38;;;;;;;9.25;3.03;;;;;;;;;;5069121;28;20044;-75
2022/06/06 06:23:14;;;;;;;3.05;2.75;;;;;;;;;;5068551;28;20049;-74
2022/06/06 06:25:46;;;;;;;9.98;3.22;;;;;;;;;;5068733;28;20411;-74
2022/06/06 06:28:15;;;;;;;;;;;;;;;;;;5068056;28;20056;-75
2022/06/06 06:31:09;;;;;;;3.58;2.75;;;;;;;;;;5068837;28;19924;-74
2022/06/06 06:33:49;;;;;;;5.45;3.50;;;;;;;;;;5067364;28;20063;-75
2022/06/06 06:36:46;;;;;;;8.57;3.70;;;;;;;;;;5068985;28;20083;-75
2022/06/06 06:39:22;;;;;;;12.57;4.05;;;;;;;;;;5068818;28;20047;-75
2022/06/06 06:42:07;;;;;;;5.32;4.20;;;;;;;;;;5068143;28;20049;-76
2022/06/06 06:44:47;;;;;;;8.82;4.20;;;;;;;;;;5069075;28;20045;-75
2022/06/06 06:47:23;;;;;;;12.10;4.25;;;;;;;;;;5068398;28;20056;-75
2022/06/06 06:49:56;;;;;;;12.00;4.20;;;;;;;;;;5068514;28;20513;-76
2022/06/06 06:52:54;;;;;;;7.07;4.07;;;;;;;;;;5068405;28;20597;-75
2022/06/06 06:55:39;;;;;;;14.05;4.07;;;;;;;;;;5068673;28;20059;-76
2022/06/06 06:58:34;;;;;;;10.95;4.47;;;;;;;;;;5067609;28;20050;-75
2022/06/06 07:01:08;;;;;;;12.00;5.40;;;;;;;;;;5066816;28;20052;-75
2022/06/06 07:09:54;;;;;;;21.42;4.72;;;;;;;;;;5068452;28;20048;-75
2022/06/06 07:12:42;;;;;;;17.15;4.53;;;;;;;;;;5067377;28;20051;-75
2022/06/06 07:15:57;;;;;;;17.65;4.10;;;;;;;;;;5067503;28;20048;-76
2022/06/06 07:18:32;;;;;;;70.43;5.85;;;;;;;;;;4985708;28;20061;-76
2022/06/06 07:21:12;;;;;;;10.55;2.90;;;;;;;;;;5066026;28;20071;-75
2022/06/06 07:23:43;;;;;;;13.90;3.40;;;;;;;;;;5067985;28;20769;-75
2022/06/06 07:26:14;;;;;;;14.43;4.00;;;;;;;;;;5067534;28;20048;-75
2022/06/06 07:28:44;;;;;;;9.60;4.75;;;;;;;;;;5067441;28;20526;-75
2022/06/06 07:31:34;;;;;;;8.60;5.38;;;;;;;;;;5067643;28;20442;-74
2022/06/06 07:34:19;;;;;;;14.80;8.07;;;;;;;;;;5068104;28;20547;-74
2022/06/06 07:37:07;;;;;;;7.43;5.45;;;;;;;;;;5067481;28;20071;-74
2022/06/06 07:39:58;;;;;;;7.03;3.83;;;;;;;;;;5068268;28;20612;-74
2022/06/06 07:43:05;;;;;;;21.38;3.83;;;;;;;;;;5067679;28;20051;-75
2022/06/06 07:45:51;;;;;;;10.98;3.97;;;;;;;;;;5067803;28;20050;-74
2022/06/06 07:48:31;;;;;;;15.02;3.60;;;;;;;;;;5067059;28;20415;-74
2022/06/06 07:51:15;;;;;;;7.05;3.75;;;;;;;;;;5065570;28;20052;-75
2022/06/06 07:54:03;;;;;;;6.25;3.00;;;;;;;;;;5068294;28;20079;-74
2022/06/06 07:56:58;;;;;;;20.23;4.40;;;;;;;;;;5067654;28;20503;-76
2022/06/06 07:59:34;;;;;;;10.98;4.10;;;;;;;;;;5066987;28;20048;-76
2022/06/06 08:02:24;;;;;;;9.02;3.70;;;;;;;;;;5067683;28;20225;-75
2022/06/06 08:05:21;;;;;;;12.88;3.83;;;;;;;;;;5067986;28;20053;-75
2022/06/06 08:08:10;;;;;;;13.52;3.58;;;;;;;;;;5066181;28;20063;-75
2022/06/06 08:10:44;;;;;;;14.43;3.30;;;;;;;;;;5067321;28;20056;-76
2022/06/06 08:13:52;;;;;;;15.88;3.58;;;;;;;;;;5067367;28;20048;-76
2022/06/06 08:16:25;;;;;;;5.45;2.67;;;;;;;;;;5067102;28;20044;-76
2022/06/06 08:19:22;;;;;;;14.90;4.10;;;;;;;;;;5067042;28;20044;-75
2022/06/06 08:21:54;;;;;;;8.30;4.07;;;;;;;;;;5038563;28;20067;-76
2022/06/06 08:24:32;;;;;;;14.57;4.63;;;;;;;;;;5065566;28;20059;-76
2022/06/06 08:27:18;;;;;;;19.23;4.32;;;;;;;;;;5066560;28;20071;-76
2022/06/06 08:29:49;;;;;;;22.75;4.50;;;;;;;;;;5066873;28;20423;-75
2022/06/06 08:32:19;;;;;;;;;;;;;;;;;;5066889;28;20511;-75
2022/06/06 08:34:49;;;;;;;18.60;4.15;;;;;;;;;;5066644;28;20307;-77
2022/06/06 08:38:01;;;;;;;32.20;4.68;;;;;;;;;;5066049;28;20041;-76
2022/06/06 08:40:44;;;;;;;89.15;6.50;;;;;;;;;;5046523;28;20052;-74
2022/06/06 08:43:57;;;;;;;104.88;6.40;;;;;;;;;;5067369;28;20052;-77
2022/06/06 08:47:05;;;;;;;34.45;5.07;;;;;;;;;;5052573;28;20135;-76
2022/06/06 08:53:02;;;;;;;13.02;3.63;;;;;;;;;;5066135;28;20048;-76
2022/06/06 08:55:45;;;;;;;58.67;8.43;;;;;;;;;;5066246;28;20044;-76
2022/06/06 08:58:27;;;;;;;33.65;5.45;;;;;;;;;;5065560;28;20045;-74
2022/06/06 09:01:16;;;;;;;285.33;12.32;;;;;;;;;;5067027;28;20055;-74
2022/06/06 09:04:27;;;;;;;308.10;13.10;;;;;;;;;;5064924;28;20049;-75
2022/06/06 09:07:12;;;;;;;231.20;7.97;;;;;;;;;;5065497;28;20541;-75
2022/06/06 09:10:12;;;;;;;18.40;3.28;;;;;;;;;;5065772;28;20047;-75
2022/06/06 09:13:07;;;;;;;67.80;4.57;;;;;;;;;;5067032;28;20067;-75
2022/06/06 09:16:16;;;;;;;28.38;3.55;;;;;;;;;;5066402;28;20057;-75
2022/06/06 09:18:55;;;;;;;31.77;3.13;;;;;;;;;;5066222;28;20048;-75
2022/06/06 09:21:44;;;;;;;9.57;3.15;;;;;;;;;;5064387;28;20052;-75
2022/06/06 09:24:49;;;;;;;20.98;4.07;;;;;;;;;;5065825;28;20045;-75
2022/06/06 09:27:37;;;;;;;11.35;3.00;;;;;;;;;;5065926;28;20048;-75
2022/06/06 09:30:54;;;;;;;17.63;3.00;;;;;;;;;;5066133;28;20059;-75
2022/06/06 09:33:30;;;;;;;8.95;2.60;;;;;;;;;;5054694;28;20056;-75
2022/06/06 09:36:23;;;;;;;8.63;2.63;;;;;;;;;;5066289;28;20048;-75
2022/06/06 09:39:01;;;;;;;21.08;2.95;;;;;;;;;;5065828;28;20589;-75
2022/06/06 09:42:03;;;;;;;10.88;2.85;;;;;;;;;;5065999;28;20045;-74
2022/06/06 09:44:57;;;;;;;23.10;3.50;;;;;;;;;;5068950;28;20055;-74
2022/06/06 09:47:54;;;;;;;26.20;4.82;;;;;;;;;;5069547;28;20055;-75
2022/06/06 09:50:57;;;;;;;213.88;8.43;;;;;;;;;;5069603;28;20411;-75
2022/06/06 09:53:44;;;;;;;128.95;6.22;;;;;;;;;;5069225;28;20507;-75
2022/06/06 10:00:18;;;;;;;149.30;5.10;;;;;;;;;;5069288;28;20045;-74
2022/06/06 10:03:21;;;;;;;100.03;3.83;;;;;;;;;;5069808;28;20052;-75
2022/06/06 10:06:21;;;;;;;48.65;3.25;;;;;;;;;;5069281;28;20051;-74
2022/06/06 10:09:12;;;;;;;57.28;2.85;;;;;;;;;;5069078;28;20060;-74
2022/06/06 10:12:01;;;;;;;;;;;;;;;;;;5070007;28;20056;-76
2022/06/06 10:15:07;;;;;;;4.55;1.75;;;;;;;;;;5068905;28;19932;-74
2022/06/06 10:18:02;;;;;;;3.35;1.60;;;;;;;;;;5069193;28;20044;-73
2022/06/06 10:20:58;;;;;;;5.32;2.10;;;;;;;;;;5068732;28;20067;-74
2022/06/06 10:23:53;;;;;;;2.63;2.10;;;;;;;;;;5069641;28;20045;-73
2022/06/06 10:26:31;;;;;;;3.25;1.83;;;;;;;;;;5060347;28;20063;-74
2022/06/06 10:29:15;;;;;;;40.75;4.03;;;;;;;;;;5067638;28;20052;-73
2022/06/06 10:32:00;;;;;;;372.73;13.85;;;;;;;;;;5053712;28;20519;-74
2022/06/06 10:34:46;;;;;;;26.05;2.88;;;;;;;;;;5046774;28;20518;-76
2022/06/06 10:37:29;;;;;;;2.80;1.77;;;;;;;;;;5048635;28;20071;-74
2022/06/06 10:40:23;;;;;;;2.90;1.80;;;;;;;;;;5049246;28;20107;-74
2022/06/06 10:43:17;;;;;;;2.28;2.08;;;;;;;;;;5049344;28;20068;-73
2022/06/06 10:46:01;;;;;;;5.75;2.33;;;;;;;;;;5048034;28;20048;-75
2022/06/06 10:49:01;;;;;;;5.20;2.47;;;;;;;;;;5053331;28;20526;-76
2022/06/06 10:51:59;;;;;;;3.42;1.98;;;;;;;;;;5056674;28;20041;-75
2022/06/06 10:55:03;;;;;;;6.03;2.38;;;;;;;;;;5053448;28;20594;-77
2022/06/06 10:57:39;;;;;;;2.53;1.83;;;;;;;;;;5063409;28;20044;-74
2022/06/06 11:00:20;;;;;;;5.75;2.17;;;;;;;;;;5047975;28;20411;-76
2022/06/06 11:02:59;;;;;;;9.97;2.97;;;;;;;;;;5047934;28;20508;-75
2022/06/06 11:05:50;;;;;;;5.90;2.35;;;;;;;;;;5047648;28;20277;-74
2022/06/06 11:08:35;;;;;;;6.65;2.33;;;;;;;;;;5047917;28;20080;-75
2022/06/06 11:11:50;;;;;;;2.80;2.00;;;;;;;;;;5048267;28;20044;-75
2022/06/06 11:14:36;;;;;;;5.97;3.30;;;;;;;;;;5005753;28;20065;-75
2022/06/06 11:17:21;;;;;;;6.15;3.15;;;;;;;;;;5048049;28;20040;-72
2022/06/06 11:20:00;;;;;;;6.10;3.08;;;;;;;;;;5047665;28;20056;-76
2022/06/06 11:22:40;;;;;;;17.88;3.85;;;;;;;;;;5052901;28;20056;-76
2022/06/06 11:25:16;;;;;;;6.88;2.75;;;;;;;;;;5048716;28;20053;-75
2022/06/06 11:28:04;;;;;;;5.70;2.65;;;;;;;;;;5054524;28;20057;-74
2022/06/06 11:31:04;;;;;;;5.78;2.88;;;;;;;;;;5047565;28;20060;-75
2022/06/06 11:33:43;;;;;;;16.50;3.58;;;;;;;;;;5047234;28;20491;-76
2022/06/06 11:36:34;;;;;;;6.40;3.00;;;;;;;;;;5047351;28;20419;-75
2022/06/06 11:39:34;;;;;;;8.10;3.20;;;;;;;;;;5046860;28;20060;-74
2022/06/06 11:42:28;;;;;;;6.38;2.80;;;;;;;;;;5047791;28;20369;-84
2022/06/06 11:45:19;;;;;;;7.45;4.40;;;;;;;;;;5047202;28;20488;-74
2022/06/06 11:48:07;;;;;;;6.57;3.63;;;;;;;;;;5047913;28;20111;-74
2022/06/06 11:51:04;;;;;;;7.80;3.33;;;;;;;;;;5047538;28;20041;-76
2022/06/06 11:54:10;;;;;;;17.77;4.90;;;;;;;;;;5045348;28;20057;-74
2022/06/06 11:57:16;;;;;;;6.93;4.28;;;;;;;;;;5045438;28;20053;-75
2022/06/06 11:59:52;;;;;;;5.80;3.50;;;;;;;;;;5047293;28;20076;-75
2022/06/06 12:02:33;;;;;;;10.00;3.03;;;;;;;;;;5047084;28;20041;-76
2022/06/06 12:05:40;;;;;;;7.40;2.40;;;;;;;;;;5047591;28;20044;-75
2022/06/06 12:08:19;;;;;;;4.38;2.28;;;;;;;;;;5046725;28;20064;-75
2022/06/06 12:11:30;;;;;;;5.65;2.40;;;;;;;;;;5047308;28;20377;-75
2022/06/06 12:14:27;;;;;;;4.93;3.20;;;;;;;;;;5048436;28;20052;-75
2022/06/06 12:17:18;;;;;;;2.38;2.13;;;;;;;;;;5051548;28;20060;-75
2022/06/06 12:20:25;;;;;;;4.07;2.15;;;;;;;;;;5071537;28;20057;-74
2022/06/06 12:23:11;;;;;;;6.20;2.20;;;;;;;;;;5071595;28;20054;-74
2022/06/06 12:25:57;;;;;;;3.97;2.53;;;;;;;;;;5072522;28;20032;-74
2022/06/06 12:28:48;;;;;;;4.10;2.78;;;;;;;;;;5059024;28;20056;-74
2022/06/06 12:31:36;;;;;;;3.83;3.13;;;;;;;;;;5046434;28;20419;-75
2022/06/06 12:34:15;;;;;;;3.90;2.72;;;;;;;;;;5047270;28;20045;-76
2022/06/06 12:37:11;;;;;;;4.78;3.60;;;;;;;;;;5047601;28;20048;-75
2022/06/06 12:39:52;;;;;;;4.10;3.47;;;;;;;;;;5046976;28;20053;-77
2022/06/06 12:42:35;;;;;;;4.97;4.47;;;;;;;;;;5044422;28;20044;-76
2022/06/06 12:45:09;;;;;;;6.68;4.38;;;;;;;;;;5045277;28;20045;-74
2022/06/06 12:48:08;;;;;;;5.75;4.47;;;;;;;;;;5046349;28;20412;-76
2022/06/06 12:50:45;;;;;;;6.18;4.50;;;;;;;;;;5046213;28;20059;-76
2022/06/06 12:53:32;;;;;;;8.68;5.20;;;;;;;;;;5046917;28;20056;-80
2022/06/06 12:58:46;;;;;;;4.90;4.25;;;;;;;;;;5045643;28;20049;-75
2022/06/06 13:01:53;;;;;;;6.55;5.00;;;;;;;;;;5046069;28;20079;-76
2022/06/06 13:04:48;;;;;;;12.20;3.80;;;;;;;;;;5046177;28;20504;-76
2022/06/06 13:07:50;;;;;;;4.57;3.25;;;;;;;;;;5043727;28;20068;-76
2022/06/06 13:10:34;;;;;;;5.85;4.10;;;;;;;;;;5046619;28;20051;-74
2022/06/06 13:13:39;;;;;;;7.45;5.28;;;;;;;;;;5046200;28;20041;-74
2022/06/06 13:16:31;;;;;;;6.18;4.72;;;;;;;;;;5046924;28;20045;-74
2022/06/06 13:19:35;;;;;;;5.60;4.47;;;;;;;;;;5048529;28;20045;-75
2022/06/06 13:22:35;;;;;;;4.82;2.85;;;;;;;;;;5033586;28;20053;-75
2022/06/06 13:25:22;;;;;;;4.78;2.92;;;;;;;;;;5033316;28;20061;-77
2022/06/06 13:27:55;;;;;;;3.92;3.35;;;;;;;;;;5048717;28;20057;-75
2022/06/06 13:30:36;;;;;;;4.45;2.80;;;;;;;;;;5049843;28;20064;-75
2022/06/06 13:33:39;;;;;;;3.58;2.03;;;;;;;;;;5050529;28;20045;-76
2022/06/06 13:36:34;;;;;;;3.38;2.03;;;;;;;;;;5047934;28;20531;-74
2022/06/06 13:39:11;;;;;;;9.70;6.53;;;;;;;;;;5050099;28;20052;-82
2022/06/06 13:41:56;;;;;;;3.58;2.92;;;;;;;;;;5050089;28;20508;-75
2022/06/06 13:44:47;;;;;;;3.60;2.33;;;;;;;;;;5053441;28;20049;-77
2022/06/06 13:47:17;;;;;;;5.67;2.17;;;;;;;;;;5050026;28;20049;-78
2022/06/06 13:49:56;;;;;;;2.90;2.22;;;;;;;;;;5049761;28;20037;-75
2022/06/06 13:52:44;;;;;;;4.03;2.20;;;;;;;;;;5050246;28;20044;-75
2022/06/06 13:55:28;;;;;;;6.78;3.97;;;;;;;;;;5049763;28;20060;-79
2022/06/06 13:58:09;;;;;;;6.07;3.25;;;;;;;;;;5049685;28;20479;-76
2022/06/06 14:01:05;;;;;;;;;;;;;;;;;;5051062;28;20401;-75
2022/06/06 14:03:55;;;;;;;2.95;1.90;;;;;;;;;;5048982;28;20312;-76
2022/06/06 14:07:02;;;;;;;4.18;2.30;;;;;;;;;;5018065;28;20057;-75
2022/06/06 14:09:40;;;;;;;2.50;2.30;;;;;;;;;;5043900;28;20510;-75
2022/06/06 14:12:19;;;;;;;2.50;2.10;;;;;;;;;;5049714;28;20049;-74
2022/06/06 14:15:04;;;;;;;5.47;2.35;;;;;;;;;;5049997;28;20049;-72
2022/06/06 14:17:37;;;;;;;3.25;2.67;;;;;;;;;;5049214;28;20060;-75
2022/06/06 14:20:17;;;;;;;3.08;2.58;;;;;;;;;;5048525;28;20045;-74
2022/06/06 14:22:49;;;;;;;4.53;3.00;;;;;;;;;;5048971;28;20535;-74
2022/06/06 14:25:19;;;;;;;3.22;2.90;;;;;;;;;;5047853;28;20073;-77
2022/06/06 14:27:49;;;;;;;3.55;3.10;;;;;;;;;;5049239;28;20057;-74
2022/06/06 14:30:25;;;;;;;6.75;3.60;;;;;;;;;;5049006;28;20140;-77
2022/06/06 14:32:58;;;;;;;7.18;4.07;;;;;;;;;;5049253;28;20064;-73
2022/06/06 14:35:39;;;;;;;9.80;4.30;;;;;;;;;;5047543;28;20412;-72
2022/06/06 14:38:20;;;;;;;10.25;5.00;;;;;;;;;;5048811;28;20067;-77
2022/06/06 14:41:03;;;;;;;8.73;5.30;;;;;;;;;;5048541;28;20056;-74
2022/06/06 14:43:50;;;;;;;7.95;3.72;;;;;;;;;;5048627;28;20041;-74
2022/06/06 14:46:20;;;;;;;5.88;3.72;;;;;;;;;;5048668;28;20060;-72
2022/06/06 14:48:56;;;;;;;8.17;4.03;;;;;;;;;;5049026;28;20040;-76
2022/06/06 14:51:42;;;;;;;4.88;3.08;;;;;;;;;;5048007;28;20045;-75
2022/06/06 14:54:15;;;;;;;8.05;2.60;;;;;;;;;;5048536;28;20052;-73
2022/06/06 14:56:50;;;;;;;4.60;3.15;;;;;;;;;;5047502;28;20063;-74
2022/06/06 14:59:43;;;;;;;3.85;2.35;;;;;;;;;;5048487;28;20053;-74
2022/06/06 15:02:22;;;;;;;6.07;2.50;;;;;;;;;;5048467;28;20060;-78
2022/06/06 15:05:17;;;;;;;4.70;3.40;;;;;;;;;;5048208;28;20060;-73
2022/06/06 15:07:58;;;;;;;7.40;2.38;;;;;;;;;;5047959;28;20064;-75
2022/06/06 15:10:51;;;;;;;4.00;2.13;;;;;;;;;;5046763;28;20075;-74
2022/06/06 15:13:22;;;;;;;3.42;1.73;;;;;;;;;;5049460;28;20072;-75
2022/06/06 15:15:54;;;;;;;3.00;1.93;;;;;;;;;;5049031;28;20671;-74
2022/06/06 15:18:32;;;;;;;2.28;2.00;;;;;;;;;;5048361;28;20060;-76
2022/06/06 15:21:06;;;;;;;2.47;2.00;;;;;;;;;;5046512;28;20057;-75
2022/06/06 15:23:49;;;;;;;4.18;2.40;;;;;;;;;;5048133;28;20527;-77
2022/06/06 15:26:44;;;;;;;3.60;1.58;;;;;;;;;;5048163;28;20416;-76
2022/06/06 15:29:33;;;;;;;4.78;1.98;;;;;;;;;;5047199;28;20510;-75
2022/06/06 15:32:15;;;;;;;3.55;2.50;;;;;;;;;;5047692;28;20045;-74
2022/06/06 15:35:22;;;;;;;4.75;2.10;;;;;;;;;;5047533;28;20041;-74
2022/06/06 15:38:36;;;;;;;4.63;2.03;;;;;;;;;;5046537;28;20056;-75
2022/06/06 15:41:12;;;;;;;4.28;2.45;;;;;;;;;;5047081;28;20508;-73
2022/06/06 15:43:45;;;;;;;5.10;2.38;;;;;;;;;;5047522;28;20049;-76
2022/06/06 15:46:34;;;;;;;3.28;2.30;;;;;;;;;;5047416;28;20044;-76
2022/06/06 15:49:42;;;;;;;4.28;2.50;;;;;;;;;;5047532;28;20522;-74
2022/06/06 15:52:35;;;;;;;2.28;2.08;;;;;;;;;;5047580;28;20056;-74
2022/06/06 15:55:31;;;;;;;2.85;1.95;;;;;;;;;;5047140;28;20045;-76
2022/06/06 15:58:32;;;;;;;2.95;2.15;;;;;;;;;;5027762;28;20044;-75
2022/06/06 16:01:15;;;;;;;2.15;1.95;;;;;;;;;;5047399;28;20480;-73
2022/06/06 16:04:15;;;;;;;4.47;2.22;;;;;;;;;;5047403;28;20064;-75
2022/06/06 16:06:51;;;;;;;2.47;1.93;;;;;;;;;;5047646;28;20377;-75
2022/06/06 16:09:31;;;;;;;3.45;2.20;;;;;;;;;;5047883;28;20049;-77
2022/06/06 16:12:13;;;;;;;3.30;2.42;;;;;;;;;;5045763;28;20413;-75
2022/06/06 16:15:14;;;;;;;6.70;3.10;;;;;;;;;;5046721;28;20545;-74
2022/06/06 16:17:51;;;;;;;;;;;;;;;;;;5041139;28;20534;-78
2022/06/06 16:20:47;;;;;;;3.45;3.10;;;;;;;;;;5047617;28;19925;-77
2022/06/06 16:23:28;;;;;;;3.50;2.95;;;;;;;;;;5031519;28;20049;-76
2022/06/06 16:26:11;;;;;;;;;;;;;;;;;;5047667;28;20373;-76
2022/06/06 16:28:48;;;;;;;7.40;2.90;;;;;;;;;;5046469;28;19928;-79
2022/06/06 16:31:32;;;;;;;4.80;2.95;;;;;;;;;;5046308;28;20049;-75
2022/06/06 16:34:23;;;;;;;6.20;3.85;;;;;;;;;;5046752;28;20429;-75
2022/06/06 16:37:16;;;;;;;4.65;3.67;;;;;;;;;;5046678;28;20051;-75
2022/06/06 16:39:49;;;;;;;3.05;2.45;;;;;;;;;;5046241;28;20056;-76
2022/06/06 16:48:54;;;;;;;3.78;2.25;;;;;;;;;;5045979;28;20064;-72
2022/06/06 16:51:48;;;;;;;4.32;3.08;;;;;;;;;;5046261;28;20056;-73
2022/06/06 16:54:37;;;;;;;6.20;3.00;;;;;;;;;;5046385;28;20056;-73
2022/06/06 16:57:29;;;;;;;6.60;2.75;;;;;;;;;;5044388;28;20056;-75
2022/06/06 17:00:21;;;;;;;2.83;2.45;;;;;;;;;;5046361;28;20053;-74
2022/06/06 17:02:58;;;;;;;3.33;2.72;;;;;;;;;;5045856;28;20053;-75
2022/06/06 17:08:43;;;;;;;3.10;2.40;;;;;;;;;;5025766;28;20064;-75
2022/06/06 17:11:36;;;;;;;4.95;2.72;;;;;;;;;;5046040;28;20072;-74